This is the latest recevied weather packets stored in our database for station/object GW1573. If no packets are shown the sender has not sent any weather packets the latest 10 day(s).
| Time | Temp. | Humidity | Pressure | Rain* | Wind** | Luminosity | Snow |
|---|---|---|---|---|---|---|---|
| 1777350613 | 15° C | 89% | 1017.2 hPa | 1.27 mm | - | - | - |
| 1777349561 | 17.78° C | 60% | 1016.9 hPa | 0 mm | - | - | - |
| 1777348490 | 20.56° C | 45% | 1016.2 hPa | 0 mm | - | - | - |
| 1777347395 | 21.11° C | 42% | 1015.5 hPa | 0 mm | - | - | - |
| 1777346688 | 21.11° C | 42% | 1015.5 hPa | 0 mm | - | - | - |
| 1777343791 | 20° C | 45% | 1015.5 hPa | 0 mm | - | - | - |
| 1777340930 | 20° C | 48% | 1015.5 hPa | 0 mm | - | - | - |
| 1777340547 | 20.56° C | 49% | 1015.5 hPa | 0 mm | - | - | - |
| 1777340207 | 20° C | 46% | 1015.5 hPa | 0 mm | - | - | - |
| 1777337298 | 20° C | 53% | 1015.2 hPa | 0 mm | - | - | - |
| 1777335890 | 20° C | 51% | 1015.2 hPa | 0 mm | - | - | - |
| 1777332627 | 21.67° C | 55% | 1015.5 hPa | 0 mm | - | - | - |
| 1777330491 | 23.33° C | 45% | 1015.5 hPa | 0 mm | - | - | - |
| 1777326861 | 25.56° C | 40% | 1015.9 hPa | 0 mm | - | - | - |
| 1777326171 | 25.56° C | 36% | 1016.2 hPa | 0 mm | - | - | - |
| 1777322919 | 26.11° C | 38% | 1016.2 hPa | 0 mm | - | - | - |
| 1777320052 | 26.11° C | 43% | 1016.5 hPa | 0 mm | - | - | - |
| 1777318247 | 26.67° C | 41% | 1016.9 hPa | 0 mm | - | - | - |
| 1777314287 | 25° C | 44% | 1017.9 hPa | 0 mm | - | - | - |
| 1777313213 | 24.44° C | 46% | 1018.6 hPa | 0 mm | - | - | - |
| 1777307091 | 21.67° C | 54% | 1019.9 hPa | 0 mm | - | - | - |
| 1777305250 | 20° C | 55% | 1019.9 hPa | 0 mm | - | - | - |
| 1777303133 | 18.89° C | 59% | 1020.3 hPa | 0 mm | - | - | - |
| 1777302731 | 19.44° C | 63% | 1020.3 hPa | 0 mm | - | - | - |
| 1777301295 | 17.78° C | 65% | 1019.9 hPa | 0 mm | - | - | - |
* Rain since midnight (hover to see other rain measurements)
** Current wind speed in m/s (hover to see current wind gust speed)